createdAt,value
2024-02-02T00:00:51.847Z,1018.00
2024-02-02T00:01:51.708Z,1017.98
2024-02-02T00:02:51.755Z,1017.95
2024-02-02T00:03:51.956Z,1017.90
2024-02-02T00:04:51.677Z,1017.88
2024-02-02T00:05:51.646Z,1017.82
2024-02-02T00:06:51.728Z,1017.78
2024-02-02T00:07:51.616Z,1017.74
2024-02-02T00:08:51.648Z,1017.72
2024-02-02T00:09:51.587Z,1017.70
2024-02-02T00:10:51.576Z,1017.70
2024-02-02T00:11:51.636Z,1017.68
2024-02-02T00:12:51.556Z,1017.65
2024-02-02T00:13:51.553Z,1017.61
2024-02-02T00:14:51.549Z,1017.61
2024-02-02T00:15:51.569Z,1017.56
2024-02-02T00:16:51.545Z,1017.54
2024-02-02T00:17:51.655Z,1017.52
2024-02-02T00:18:51.580Z,1017.53
2024-02-02T00:19:51.527Z,1017.52
2024-02-02T00:20:51.521Z,1017.52
2024-02-02T00:21:51.469Z,1017.49
2024-02-02T00:22:52.644Z,1017.46
2024-02-02T00:23:51.483Z,1017.44
2024-02-02T00:24:51.440Z,1017.43
2024-02-02T00:25:51.451Z,1017.42
2024-02-02T00:26:51.445Z,1017.37
2024-02-02T00:27:51.417Z,1017.36
2024-02-02T00:28:51.443Z,1017.34
2024-02-02T00:29:51.433Z,1017.35
2024-02-02T00:30:51.407Z,1017.35
2024-02-02T00:31:51.388Z,1017.32
2024-02-02T00:32:51.472Z,1017.32
2024-02-02T00:33:51.570Z,1017.31
2024-02-02T00:34:51.465Z,1017.35
2024-02-02T00:35:51.346Z,1017.37
2024-02-02T00:36:51.344Z,1017.39
2024-02-02T00:37:51.307Z,1017.40
2024-02-02T00:38:51.357Z,1017.36
2024-02-02T00:39:51.373Z,1017.32
2024-02-02T00:40:51.315Z,1017.28
2024-02-02T00:41:51.275Z,1017.25
2024-02-02T00:42:51.270Z,1017.22
2024-02-02T00:43:51.278Z,1017.17
2024-02-02T00:44:51.291Z,1017.15
2024-02-02T00:45:51.265Z,1017.13
2024-02-02T00:46:51.219Z,1017.13
2024-02-02T00:47:51.278Z,1017.12
2024-02-02T00:48:51.334Z,1017.06
2024-02-02T00:49:51.360Z,1017.01
2024-02-02T00:50:51.268Z,1017.00
2024-02-02T00:51:51.185Z,1016.98
2024-02-02T00:52:51.178Z,1017.00
2024-02-02T00:53:51.208Z,1017.00
2024-02-02T00:54:51.142Z,1017.01
2024-02-02T00:55:51.168Z,1017.06
2024-02-02T00:56:51.223Z,1017.08
2024-02-02T00:57:51.127Z,1017.09
2024-02-02T00:58:51.114Z,1017.04
2024-02-02T00:59:51.101Z,1017.04
2024-02-02T01:00:51.129Z,1017.02
2024-02-02T01:01:51.076Z,1017.03
2024-02-02T01:02:51.104Z,1017.02
2024-02-02T01:03:51.157Z,1016.97
2024-02-02T01:04:51.024Z,1016.93
2024-02-02T01:05:51.103Z,1016.99
2024-02-02T01:06:51.153Z,1017.01
2024-02-02T01:07:51.040Z,1017.03
2024-02-02T01:08:50.988Z,1017.04
2024-02-02T01:09:50.978Z,1017.08
2024-02-02T01:10:50.968Z,1017.09
2024-02-02T01:11:51.032Z,1017.10
2024-02-02T01:12:50.954Z,1017.04
2024-02-02T01:13:50.952Z,1017.01
2024-02-02T01:14:50.960Z,1016.99
2024-02-02T01:15:50.904Z,1016.99
2024-02-02T01:16:50.911Z,1016.94
2024-02-02T01:17:50.994Z,1016.91
2024-02-02T01:18:50.973Z,1016.88
2024-02-02T01:19:50.910Z,1016.88
2024-02-02T01:20:50.868Z,1016.87
2024-02-02T01:21:50.877Z,1016.85
2024-02-02T01:22:50.843Z,1016.90
2024-02-02T01:23:50.861Z,1016.95
2024-02-02T01:24:50.821Z,1016.97
2024-02-02T01:25:50.846Z,1016.97
2024-02-02T01:26:50.831Z,1017.02
2024-02-02T01:27:50.777Z,1017.01
2024-02-02T01:28:50.782Z,1017.01
2024-02-02T01:29:50.767Z,1017.06
2024-02-02T01:30:50.828Z,1017.08
2024-02-02T01:31:50.746Z,1017.00
2024-02-02T01:32:50.835Z,1016.96
2024-02-02T01:33:50.867Z,1016.93
2024-02-02T01:34:50.718Z,1016.89
2024-02-02T01:35:50.730Z,1016.87
2024-02-02T01:36:50.677Z,1016.82
2024-02-02T01:37:50.675Z,1016.81
2024-02-02T01:38:50.690Z,1016.81
2024-02-02T01:39:50.705Z,1016.84
2024-02-02T01:40:50.694Z,1016.89
2024-02-02T01:41:50.732Z,1016.87
2024-02-02T01:42:50.672Z,1016.81
2024-02-02T01:43:50.627Z,1016.77
2024-02-02T01:44:50.641Z,1016.77
2024-02-02T01:45:50.583Z,1016.72
2024-02-02T01:46:50.617Z,1016.67
2024-02-02T01:47:50.650Z,1016.69
2024-02-02T01:48:50.688Z,1016.67
2024-02-02T01:49:50.637Z,1016.65
2024-02-02T01:50:50.578Z,1016.68
2024-02-02T01:51:50.512Z,1016.69
2024-02-02T01:52:50.539Z,1016.70
2024-02-02T01:53:50.533Z,1016.71
2024-02-02T01:54:50.499Z,1016.72
2024-02-02T01:55:50.590Z,1016.79
2024-02-02T01:56:50.486Z,1016.87
2024-02-02T01:57:50.452Z,1016.91
2024-02-02T01:58:50.460Z,1016.95
2024-02-02T01:59:50.456Z,1016.99
2024-02-02T02:00:50.474Z,1016.97
2024-02-02T02:01:50.413Z,1016.96
2024-02-02T02:02:50.469Z,1016.92
2024-02-02T02:03:50.512Z,1016.93
2024-02-02T02:04:50.387Z,1016.96
2024-02-02T02:05:50.495Z,1017.00
2024-02-02T02:06:50.412Z,1016.99
2024-02-02T02:07:50.379Z,1017.02
2024-02-02T02:08:50.389Z,1017.05
2024-02-02T02:09:50.331Z,1017.03
2024-02-02T02:10:50.316Z,1016.99
2024-02-02T02:11:50.332Z,1016.94
2024-02-02T02:12:50.318Z,1016.92
2024-02-02T02:13:50.307Z,1016.91
2024-02-02T02:14:50.300Z,1016.90
2024-02-02T02:15:50.317Z,1016.89
2024-02-02T02:16:50.250Z,1016.90
2024-02-02T02:17:50.313Z,1016.86
2024-02-02T02:18:56.064Z,1016.85
2024-02-02T02:19:50.326Z,1016.84
2024-02-02T02:20:50.264Z,1016.80
2024-02-02T02:21:50.269Z,1016.72
2024-02-02T02:22:50.234Z,1016.67
2024-02-02T02:23:50.215Z,1016.68
2024-02-02T02:24:50.178Z,1016.66
2024-02-02T02:25:50.247Z,1016.66
2024-02-02T02:26:50.295Z,1016.66
2024-02-02T02:27:50.138Z,1016.66
2024-02-02T02:28:50.124Z,1016.62
2024-02-02T02:29:50.174Z,1016.58
2024-02-02T02:30:50.149Z,1016.61
2024-02-02T02:31:50.189Z,1016.66
2024-02-02T02:32:50.196Z,1016.67
2024-02-02T02:33:50.218Z,1016.67
2024-02-02T02:34:50.149Z,1016.65
2024-02-02T02:35:50.159Z,1016.63
2024-02-02T02:36:50.052Z,1016.68
2024-02-02T02:37:50.041Z,1016.67
2024-02-02T02:38:50.045Z,1016.61
2024-02-02T02:39:50.018Z,1016.63
2024-02-02T02:40:50.054Z,1016.62
2024-02-02T02:41:50.019Z,1016.62
2024-02-02T02:42:49.986Z,1016.59
2024-02-02T02:43:50.003Z,1016.58
2024-02-02T02:44:50.011Z,1016.50
2024-02-02T02:45:50.009Z,1016.51
2024-02-02T02:46:49.947Z,1016.54
2024-02-02T02:47:50.093Z,1016.52
2024-02-02T02:48:50.196Z,1016.47
2024-02-02T02:49:50.085Z,1016.38
2024-02-02T02:50:50.026Z,1016.38
2024-02-02T02:51:49.906Z,1016.38
2024-02-02T02:52:49.908Z,1016.35
2024-02-02T02:53:49.975Z,1016.35
2024-02-02T02:54:49.886Z,1016.35
2024-02-02T02:55:49.869Z,1016.38
2024-02-02T02:56:49.986Z,1016.36
2024-02-02T02:57:49.845Z,1016.35
2024-02-02T02:58:49.873Z,1016.33
2024-02-02T02:59:49.880Z,1016.28
2024-02-02T03:00:49.836Z,1016.32
2024-02-02T03:01:49.814Z,1016.42
2024-02-02T03:02:49.813Z,1016.46
2024-02-02T03:03:49.882Z,1016.47
2024-02-02T03:04:49.769Z,1016.46
2024-02-02T03:05:49.850Z,1016.47
2024-02-02T03:06:49.843Z,1016.50
2024-02-02T03:07:49.737Z,1016.52
2024-02-02T03:08:49.799Z,1016.49
2024-02-02T03:09:49.715Z,1016.49
2024-02-02T03:10:49.705Z,1016.49
2024-02-02T03:11:49.724Z,1016.47
2024-02-02T03:12:49.715Z,1016.42
2024-02-02T03:13:49.694Z,1016.37
2024-02-02T03:14:49.736Z,1016.37
2024-02-02T03:15:49.655Z,1016.39
2024-02-02T03:16:49.650Z,1016.38
2024-02-02T03:17:49.772Z,1016.33
2024-02-02T03:18:49.745Z,1016.27
2024-02-02T03:19:49.680Z,1016.33
2024-02-02T03:20:49.640Z,1016.35
2024-02-02T03:21:49.620Z,1016.41
2024-02-02T03:22:49.610Z,1016.39
2024-02-02T03:23:49.608Z,1016.39
2024-02-02T03:24:49.591Z,1016.40
2024-02-02T03:25:49.550Z,1016.41
2024-02-02T03:26:49.680Z,1016.41
2024-02-02T03:27:49.597Z,1016.46
2024-02-02T03:28:49.533Z,1016.49
2024-02-02T03:29:49.557Z,1016.52
2024-02-02T03:30:49.575Z,1016.51
2024-02-02T03:31:49.556Z,1016.50
2024-02-02T03:32:49.628Z,1016.50
2024-02-02T03:33:49.703Z,1016.52
2024-02-02T03:34:49.563Z,1016.51
2024-02-02T03:35:49.466Z,1016.45
2024-02-02T03:36:49.465Z,1016.45
2024-02-02T03:37:49.427Z,1016.41
2024-02-02T03:38:49.472Z,1016.39
2024-02-02T03:39:49.428Z,1016.40
2024-02-02T03:40:49.492Z,1016.45
2024-02-02T03:41:49.435Z,1016.47
2024-02-02T03:42:49.409Z,1016.45
2024-02-02T03:43:49.366Z,1016.48
2024-02-02T03:44:49.397Z,1016.50
2024-02-02T03:45:49.375Z,1016.47
2024-02-02T03:46:49.356Z,1016.47
2024-02-02T03:47:49.418Z,1016.51
2024-02-02T03:48:49.337Z,1016.49
2024-02-02T03:49:49.404Z,1016.49
2024-02-02T03:50:49.450Z,1016.47
2024-02-02T03:51:49.306Z,1016.48
2024-02-02T03:52:49.285Z,1016.53
2024-02-02T03:53:49.374Z,1016.56
2024-02-02T03:54:49.346Z,1016.53
2024-02-02T03:55:49.276Z,1016.54
2024-02-02T03:56:49.418Z,1016.51
2024-02-02T03:57:49.234Z,1016.41
2024-02-02T03:58:49.227Z,1016.41
2024-02-02T03:59:49.244Z,1016.38
2024-02-02T04:00:49.256Z,1016.37
2024-02-02T04:01:49.263Z,1016.32
2024-02-02T04:02:49.235Z,1016.28
2024-02-02T04:03:49.394Z,1016.25
2024-02-02T04:04:49.319Z,1016.21
2024-02-02T04:05:49.290Z,1016.16
2024-02-02T04:06:49.135Z,1016.11
2024-02-02T04:07:49.137Z,1016.09
2024-02-02T04:08:49.144Z,1016.09
2024-02-02T04:09:49.157Z,1016.05
2024-02-02T04:10:49.097Z,1016.01
2024-02-02T04:11:49.138Z,1016.01
2024-02-02T04:12:49.135Z,1015.96
2024-02-02T04:13:49.131Z,1015.96
2024-02-02T04:14:49.121Z,1016.01
2024-02-02T04:15:49.162Z,1016.01
2024-02-02T04:16:49.076Z,1015.99
2024-02-02T04:17:49.094Z,1016.01
2024-02-02T04:18:49.261Z,1016.05
2024-02-02T04:19:49.109Z,1016.10
2024-02-02T04:20:48.996Z,1016.04
2024-02-02T04:21:48.997Z,1015.96
2024-02-02T04:22:49.090Z,1015.88
2024-02-02T04:23:48.959Z,1015.86
2024-02-02T04:24:55.437Z,1015.88
2024-02-02T04:25:55.435Z,1015.87
2024-02-02T04:26:55.428Z,1015.86
2024-02-02T04:27:48.943Z,1015.83
2024-02-02T04:28:48.926Z,1015.86
2024-02-02T04:29:48.906Z,1015.86
2024-02-02T04:30:48.894Z,1015.86
2024-02-02T04:31:48.891Z,1015.91
2024-02-02T04:32:49.048Z,1015.98
2024-02-02T04:33:49.016Z,1015.93
2024-02-02T04:34:48.989Z,1015.91
2024-02-02T04:35:48.862Z,1015.94
2024-02-02T04:36:48.860Z,1015.97
2024-02-02T04:37:48.813Z,1015.92
2024-02-02T04:38:48.805Z,1015.93
2024-02-02T04:39:48.800Z,1015.90
2024-02-02T04:40:48.806Z,1015.87
2024-02-02T04:41:48.804Z,1015.84
2024-02-02T04:42:49.062Z,1015.82
2024-02-02T04:43:48.751Z,1015.81
2024-02-02T04:44:48.786Z,1015.78
2024-02-02T04:45:48.754Z,1015.72
2024-02-02T04:46:48.851Z,1015.66
2024-02-02T04:47:48.804Z,1015.65
2024-02-02T04:48:48.825Z,1015.64
2024-02-02T04:49:48.795Z,1015.62
2024-02-02T04:50:48.759Z,1015.62
2024-02-02T04:51:48.667Z,1015.57
2024-02-02T04:52:48.702Z,1015.55
2024-02-02T04:53:48.675Z,1015.57
2024-02-02T04:54:48.640Z,1015.57
2024-02-02T04:55:48.677Z,1015.59
2024-02-02T04:56:48.617Z,1015.64
2024-02-02T04:57:48.648Z,1015.59
2024-02-02T04:58:48.597Z,1015.52
2024-02-02T04:59:48.708Z,1015.53
2024-02-02T05:00:48.616Z,1015.51
2024-02-02T05:01:48.593Z,1015.41
2024-02-02T05:02:48.557Z,1015.39
2024-02-02T05:03:48.578Z,1015.38
2024-02-02T05:04:57.189Z,1015.40
2024-02-02T05:05:55.087Z,1015.41
2024-02-02T05:06:55.037Z,1015.39
2024-02-02T05:07:55.134Z,1015.41
2024-02-02T05:08:55.022Z,1015.33
2024-02-02T05:09:56.268Z,1015.26
2024-02-02T05:10:54.975Z,1015.18
2024-02-02T05:11:56.054Z,1015.16
2024-02-02T05:12:48.493Z,1015.13
2024-02-02T05:13:48.464Z,1015.07
2024-02-02T05:14:48.468Z,1015.02
2024-02-02T05:15:48.458Z,1015.00
2024-02-02T05:16:48.432Z,1015.03
2024-02-02T05:17:48.537Z,1015.00
2024-02-02T05:18:48.565Z,1015.00
2024-02-02T05:19:48.440Z,1014.97
2024-02-02T05:20:48.370Z,1014.86
2024-02-02T05:21:48.380Z,1014.83
2024-02-02T05:22:48.390Z,1014.80
2024-02-02T05:23:49.898Z,1014.76
2024-02-02T05:24:48.391Z,1014.77
2024-02-02T05:25:48.323Z,1014.76
2024-02-02T05:26:48.356Z,1014.70
2024-02-02T05:27:48.335Z,1014.65
2024-02-02T05:28:48.422Z,1014.72
2024-02-02T05:29:48.289Z,1014.73
2024-02-02T05:30:48.323Z,1014.70
2024-02-02T05:31:48.333Z,1014.72
2024-02-02T05:32:48.360Z,1014.66
2024-02-02T05:33:48.422Z,1014.75
2024-02-02T05:34:48.332Z,1014.77
2024-02-02T05:35:48.253Z,1014.85
2024-02-02T05:36:48.234Z,1014.84
2024-02-02T05:37:48.249Z,1014.82
2024-02-02T05:38:48.243Z,1014.82
2024-02-02T05:39:48.214Z,1014.81
2024-02-02T05:40:48.162Z,1014.84
2024-02-02T05:41:48.193Z,1014.79
2024-02-02T05:42:48.176Z,1014.87
2024-02-02T05:43:48.177Z,1014.90
2024-02-02T05:44:48.140Z,1014.93
2024-02-02T05:45:48.119Z,1015.01
2024-02-02T05:46:48.127Z,1015.00
2024-02-02T05:47:48.156Z,1014.97
2024-02-02T05:48:48.230Z,1014.92
2024-02-02T05:49:48.198Z,1014.85
2024-02-02T05:50:48.102Z,1014.85
2024-02-02T05:51:48.158Z,1014.84
2024-02-02T05:52:48.068Z,1014.86
2024-02-02T05:53:48.039Z,1014.78
2024-02-02T05:54:48.021Z,1014.75
2024-02-02T05:55:48.040Z,1014.77
2024-02-02T05:56:48.047Z,1014.76
2024-02-02T05:57:48.004Z,1014.74
2024-02-02T05:58:47.993Z,1014.71
2024-02-02T05:59:47.970Z,1014.63
2024-02-02T06:00:48.202Z,1014.62
2024-02-02T06:01:47.974Z,1014.55
2024-02-02T06:02:47.941Z,1014.60
2024-02-02T06:03:48.212Z,1014.62
2024-02-02T06:04:48.016Z,1014.65
2024-02-02T06:05:48.138Z,1014.64
2024-02-02T06:06:48.004Z,1014.62
2024-02-02T06:07:47.989Z,1014.61
2024-02-02T06:08:47.890Z,1014.60
2024-02-02T06:09:47.975Z,1014.58
2024-02-02T06:10:47.858Z,1014.59
2024-02-02T06:11:47.855Z,1014.54
2024-02-02T06:12:47.839Z,1014.56
2024-02-02T06:13:47.995Z,1014.55
2024-02-02T06:14:47.854Z,1014.51
2024-02-02T06:15:47.838Z,1014.47
2024-02-02T06:16:47.867Z,1014.47
2024-02-02T06:17:49.118Z,1014.46
2024-02-02T06:18:47.920Z,1014.49
2024-02-02T06:19:47.849Z,1014.48
2024-02-02T06:20:47.821Z,1014.45
2024-02-02T06:21:47.816Z,1014.46
2024-02-02T06:22:47.753Z,1014.40
2024-02-02T06:23:47.830Z,1014.43
2024-02-02T06:24:47.834Z,1014.44
2024-02-02T06:25:47.901Z,1014.45
2024-02-02T06:26:47.678Z,1014.40
2024-02-02T06:27:47.690Z,1014.38
2024-02-02T06:28:47.690Z,1014.33
2024-02-02T06:29:47.680Z,1014.34
2024-02-02T06:30:47.672Z,1014.32
2024-02-02T06:31:47.713Z,1014.38
2024-02-02T06:32:47.648Z,1014.36
2024-02-02T06:33:47.715Z,1014.35
2024-02-02T06:34:49.902Z,1014.37
2024-02-02T06:35:47.757Z,1014.36
2024-02-02T06:36:47.618Z,1014.34
2024-02-02T06:37:47.626Z,1014.35
2024-02-02T06:38:55.348Z,1014.36
2024-02-02T06:39:47.563Z,1014.36
2024-02-02T06:40:47.606Z,1014.33
2024-02-02T06:41:47.527Z,1014.32
2024-02-02T06:42:47.555Z,1014.25
2024-02-02T06:43:47.474Z,1014.29
2024-02-02T06:44:48.109Z,1014.30
2024-02-02T06:45:49.361Z,1014.29
2024-02-02T06:46:47.438Z,1014.28
2024-02-02T06:47:47.441Z,1014.31
2024-02-02T06:48:47.555Z,1014.34
2024-02-02T06:49:47.417Z,1014.43
2024-02-02T06:50:47.423Z,1014.45
2024-02-02T06:51:47.429Z,1014.44
2024-02-02T06:52:47.448Z,1014.43
2024-02-02T06:53:47.365Z,1014.42
2024-02-02T06:54:47.357Z,1014.42
2024-02-02T06:55:47.347Z,1014.37
2024-02-02T06:56:47.360Z,1014.42
2024-02-02T06:57:47.515Z,1014.40
2024-02-02T06:58:47.354Z,1014.45
2024-02-02T06:59:47.329Z,1014.46
2024-02-02T07:00:47.444Z,1014.42
2024-02-02T07:01:47.323Z,1014.39
2024-02-02T07:02:47.376Z,1014.42
2024-02-02T07:03:47.306Z,1014.43
2024-02-02T07:04:47.263Z,1014.48
2024-02-02T07:05:47.319Z,1014.53
2024-02-02T07:06:47.348Z,1014.57
2024-02-02T07:07:47.212Z,1014.59
2024-02-02T07:08:47.233Z,1014.67
2024-02-02T07:09:47.221Z,1014.65
2024-02-02T07:10:47.226Z,1014.69
2024-02-02T07:11:47.197Z,1014.63
2024-02-02T07:12:47.173Z,1014.55
2024-02-02T07:13:47.142Z,1014.62
2024-02-02T07:14:47.162Z,1014.58
2024-02-02T07:15:47.229Z,1014.61
2024-02-02T07:16:47.140Z,1014.56
2024-02-02T07:17:47.135Z,1014.53
2024-02-02T07:18:47.265Z,1014.55
2024-02-02T07:19:47.126Z,1014.51
2024-02-02T07:20:47.110Z,1014.58
2024-02-02T07:21:47.063Z,1014.56
2024-02-02T07:22:47.056Z,1014.58
2024-02-02T07:23:50.110Z,1014.57
2024-02-02T07:24:47.053Z,1014.55
2024-02-02T07:25:47.049Z,1014.56
2024-02-02T07:26:47.021Z,1014.55
2024-02-02T07:27:47.011Z,1014.60
2024-02-02T07:28:47.054Z,1014.60
2024-02-02T07:29:47.026Z,1014.57
2024-02-02T07:30:46.999Z,1014.58
2024-02-02T07:31:46.977Z,1014.52
2024-02-02T07:32:47.009Z,1014.55
2024-02-02T07:33:47.109Z,1014.54
2024-02-02T07:34:47.151Z,1014.51
2024-02-02T07:35:46.918Z,1014.54
2024-02-02T07:36:46.990Z,1014.50
2024-02-02T07:37:46.902Z,1014.54
2024-02-02T07:38:46.932Z,1014.57
2024-02-02T07:39:46.899Z,1014.55
2024-02-02T07:40:46.874Z,1014.47
2024-02-02T07:41:47.026Z,1014.52
2024-02-02T07:42:48.544Z,1014.47
2024-02-02T07:43:46.903Z,1014.51
2024-02-02T07:44:46.841Z,1014.45
2024-02-02T07:45:46.850Z,1014.46
2024-02-02T07:46:46.807Z,1014.42
2024-02-02T07:47:46.851Z,1014.50
2024-02-02T07:48:46.929Z,1014.49
2024-02-02T07:49:46.915Z,1014.48
2024-02-02T07:50:46.771Z,1014.49
2024-02-02T07:51:46.814Z,1014.50
2024-02-02T07:52:46.811Z,1014.52
2024-02-02T07:53:46.759Z,1014.51
2024-02-02T07:54:46.740Z,1014.52
2024-02-02T07:55:46.779Z,1014.52
2024-02-02T07:56:46.718Z,1014.47
2024-02-02T07:57:46.738Z,1014.55
2024-02-02T07:58:46.696Z,1014.59
2024-02-02T07:59:46.666Z,1014.63
2024-02-02T08:00:46.714Z,1014.57
2024-02-02T08:01:46.663Z,1014.59
2024-02-02T08:02:46.687Z,1014.61
2024-02-02T08:03:46.759Z,1014.62
2024-02-02T08:04:46.653Z,1014.65
2024-02-02T08:05:46.653Z,1014.65
2024-02-02T08:06:46.770Z,1014.67
2024-02-02T08:07:46.602Z,1014.62
2024-02-02T08:08:46.603Z,1014.57
2024-02-02T08:09:46.624Z,1014.60
2024-02-02T08:10:46.602Z,1014.59
2024-02-02T08:11:46.569Z,1014.57
2024-02-02T08:12:46.593Z,1014.61
2024-02-02T08:13:46.535Z,1014.64
2024-02-02T08:14:46.568Z,1014.59
2024-02-02T08:15:46.524Z,1014.57
2024-02-02T08:16:46.569Z,1014.58
2024-02-02T08:17:46.555Z,1014.57
2024-02-02T08:18:46.794Z,1014.52
2024-02-02T08:19:46.548Z,1014.53
2024-02-02T08:20:46.485Z,1014.60
2024-02-02T08:21:46.537Z,1014.51
2024-02-02T08:22:46.460Z,1014.53
2024-02-02T08:23:46.422Z,1014.48
2024-02-02T08:24:46.422Z,1014.48
2024-02-02T08:25:46.494Z,1014.46
2024-02-02T08:26:46.414Z,1014.47
2024-02-02T08:27:46.396Z,1014.46
2024-02-02T08:28:51.622Z,1014.43
2024-02-02T08:29:46.383Z,1014.42
2024-02-02T08:30:46.417Z,1014.41
2024-02-02T08:31:46.385Z,1014.37
2024-02-02T08:32:46.398Z,1014.38
2024-02-02T08:33:46.490Z,1014.42
2024-02-02T08:34:46.350Z,1014.37
2024-02-02T08:35:46.315Z,1014.38
2024-02-02T08:36:46.297Z,1014.43
2024-02-02T08:37:46.280Z,1014.42
2024-02-02T08:38:46.405Z,1014.41
2024-02-02T08:39:46.310Z,1014.41
2024-02-02T08:40:46.532Z,1014.37
2024-02-02T08:41:46.357Z,1014.28
2024-02-02T08:42:46.279Z,1014.29
2024-02-02T08:43:46.258Z,1014.35
2024-02-02T08:44:46.246Z,1014.35
2024-02-02T08:45:52.682Z,1014.33
2024-02-02T08:46:46.213Z,1014.31
2024-02-02T08:47:46.260Z,1014.35
2024-02-02T08:48:46.625Z,1014.33
2024-02-02T08:49:46.227Z,1014.31
2024-02-02T08:50:46.159Z,1014.34
2024-02-02T08:51:46.233Z,1014.37
2024-02-02T08:52:46.159Z,1014.34
2024-02-02T08:53:54.836Z,1014.41
2024-02-02T08:54:52.655Z,1014.40
2024-02-02T08:55:46.100Z,1014.39
2024-02-02T08:56:46.089Z,1014.40
2024-02-02T08:57:53.832Z,1014.35
2024-02-02T08:58:53.876Z,1014.33
2024-02-02T08:59:46.055Z,1014.23
2024-02-02T09:00:46.132Z,1014.24
2024-02-02T09:01:46.055Z,1014.18
2024-02-02T09:02:46.118Z,1014.13
2024-02-02T09:03:46.680Z,1014.12
2024-02-02T09:04:52.550Z,1014.14
2024-02-02T09:05:46.019Z,1014.14
2024-02-02T09:06:52.615Z,1014.11
2024-02-02T09:07:46.004Z,1014.07
2024-02-02T09:08:52.517Z,1014.10
2024-02-02T09:09:52.512Z,1014.08
2024-02-02T09:10:52.448Z,1014.10
2024-02-02T09:11:53.498Z,1014.15
2024-02-02T09:12:53.482Z,1014.13
2024-02-02T09:13:45.933Z,1014.17
2024-02-02T09:14:45.901Z,1014.19
2024-02-02T09:15:45.953Z,1014.16
2024-02-02T09:16:45.908Z,1014.14
2024-02-02T09:17:45.950Z,1014.13
2024-02-02T09:18:45.892Z,1014.16
2024-02-02T09:19:45.897Z,1014.14
2024-02-02T09:20:45.872Z,1014.12
2024-02-02T09:21:45.866Z,1014.13
2024-02-02T09:22:45.867Z,1014.13
2024-02-02T09:23:45.808Z,1014.15
2024-02-02T09:24:45.884Z,1014.19
2024-02-02T09:25:45.821Z,1014.11
2024-02-02T09:26:45.820Z,1014.14
2024-02-02T09:27:45.794Z,1014.11
2024-02-02T09:28:45.768Z,1014.14
2024-02-02T09:29:45.745Z,1014.17
2024-02-02T09:30:45.831Z,1014.13
2024-02-02T09:31:45.762Z,1014.09
2024-02-02T09:32:45.887Z,1014.08
2024-02-02T09:33:45.872Z,1014.11
2024-02-02T09:34:45.937Z,1014.10
2024-02-02T09:35:45.708Z,1014.14
2024-02-02T09:36:45.775Z,1014.07
2024-02-02T09:37:45.685Z,1014.06
2024-02-02T09:38:45.692Z,1014.02
2024-02-02T09:39:45.671Z,1014.04
2024-02-02T09:40:45.672Z,1014.06
2024-02-02T09:41:45.633Z,1014.10
2024-02-02T09:42:45.621Z,1014.04
2024-02-02T09:43:45.626Z,1014.03
2024-02-02T09:44:45.654Z,1014.03
2024-02-02T09:45:45.663Z,1014.14
2024-02-02T09:46:45.583Z,1014.14
2024-02-02T09:47:45.645Z,1014.14
2024-02-02T09:48:45.705Z,1014.15
2024-02-02T09:49:45.718Z,1014.15
2024-02-02T09:50:45.553Z,1014.14
2024-02-02T09:51:45.525Z,1014.12
2024-02-02T09:52:45.530Z,1014.11
2024-02-02T09:53:45.529Z,1014.08
2024-02-02T09:54:45.537Z,1014.07
2024-02-02T09:55:45.478Z,1014.09
2024-02-02T09:56:45.516Z,1014.02
2024-02-02T09:57:45.489Z,1014.02
2024-02-02T09:58:45.485Z,1014.05
2024-02-02T09:59:45.446Z,1014.10
2024-02-02T10:00:45.572Z,1014.01
2024-02-02T10:01:45.424Z,1014.09
2024-02-02T10:02:45.440Z,1014.06
2024-02-02T10:03:45.606Z,1014.03
2024-02-02T10:04:45.466Z,1014.03
2024-02-02T10:05:45.450Z,1014.00
2024-02-02T10:06:45.451Z,1014.03
2024-02-02T10:07:45.387Z,1013.97
2024-02-02T10:08:45.416Z,1014.02
2024-02-02T10:09:45.387Z,1014.07
2024-02-02T10:10:45.337Z,1014.05
2024-02-02T10:11:45.331Z,1014.00
2024-02-02T10:12:45.360Z,1013.97
2024-02-02T10:13:45.305Z,1013.99
2024-02-02T10:14:45.337Z,1014.00
2024-02-02T10:15:45.398Z,1014.01
2024-02-02T10:16:45.295Z,1014.01
2024-02-02T10:17:45.413Z,1014.07
2024-02-02T10:18:45.340Z,1014.03
2024-02-02T10:19:45.324Z,1014.09
2024-02-02T10:20:45.277Z,1014.07
2024-02-02T10:21:45.266Z,1014.08
2024-02-02T10:22:45.249Z,1014.08
2024-02-02T10:23:45.228Z,1014.10
2024-02-02T10:24:45.264Z,1014.01
2024-02-02T10:25:45.186Z,1014.02
2024-02-02T10:26:45.208Z,1014.03
2024-02-02T10:27:45.165Z,1014.01
2024-02-02T10:28:45.153Z,1014.04
2024-02-02T10:29:45.192Z,1014.02
2024-02-02T10:30:45.254Z,1014.03
2024-02-02T10:31:45.223Z,1013.98
2024-02-02T10:32:45.208Z,1013.94
2024-02-02T10:33:45.216Z,1013.97
2024-02-02T10:34:45.226Z,1013.98
2024-02-02T10:35:45.126Z,1013.96
2024-02-02T10:36:45.099Z,1013.99
2024-02-02T10:37:45.067Z,1014.00
2024-02-02T10:38:45.058Z,1014.03
2024-02-02T10:39:45.068Z,1014.05
2024-02-02T10:40:45.065Z,1013.98
2024-02-02T10:41:48.613Z,1014.02
2024-02-02T10:42:45.037Z,1014.02
2024-02-02T10:43:45.016Z,1013.96
2024-02-02T10:44:45.008Z,1014.03
2024-02-02T10:45:45.042Z,1014.02
2024-02-02T10:46:44.973Z,1014.06
2024-02-02T10:47:45.008Z,1014.09
2024-02-02T10:48:45.128Z,1014.09
2024-02-02T10:49:45.089Z,1014.11
2024-02-02T10:50:44.952Z,1014.10
2024-02-02T10:51:44.934Z,1014.05
2024-02-02T10:52:44.910Z,1014.01
2024-02-02T10:53:46.102Z,1013.98
2024-02-02T10:54:44.929Z,1014.01
2024-02-02T10:55:44.886Z,1013.97
2024-02-02T10:56:44.899Z,1013.93
2024-02-02T10:57:44.858Z,1013.93
2024-02-02T10:58:44.866Z,1013.87
2024-02-02T10:59:44.887Z,1013.90
2024-02-02T11:00:44.892Z,1013.83
2024-02-02T11:01:44.829Z,1013.80
2024-02-02T11:02:44.835Z,1013.76
2024-02-02T11:03:44.889Z,1013.71
2024-02-02T11:04:44.849Z,1013.74
2024-02-02T11:05:44.808Z,1013.75
2024-02-02T11:06:45.040Z,1013.77
2024-02-02T11:07:44.756Z,1013.65
2024-02-02T11:08:44.800Z,1013.67
2024-02-02T11:09:44.757Z,1013.66
2024-02-02T11:10:44.728Z,1013.62
2024-02-02T11:11:44.731Z,1013.63
2024-02-02T11:12:44.709Z,1013.64
2024-02-02T11:13:44.730Z,1013.71
2024-02-02T11:14:44.702Z,1013.71
2024-02-02T11:15:44.696Z,1013.69
2024-02-02T11:16:44.672Z,1013.71
2024-02-02T11:17:44.673Z,1013.74
2024-02-02T11:18:44.761Z,1013.69
2024-02-02T11:19:44.888Z,1013.71
2024-02-02T11:20:45.487Z,1013.67
2024-02-02T11:21:44.633Z,1013.66
2024-02-02T11:22:44.625Z,1013.78
2024-02-02T11:23:44.628Z,1013.65
2024-02-02T11:24:44.578Z,1013.56
2024-02-02T11:25:44.605Z,1013.58
2024-02-02T11:26:44.723Z,1013.68
2024-02-02T11:27:44.592Z,1013.59
2024-02-02T11:28:44.548Z,1013.54
2024-02-02T11:29:44.532Z,1013.54
2024-02-02T11:30:44.530Z,1013.53
2024-02-02T11:31:44.529Z,1013.50
2024-02-02T11:32:44.530Z,1013.55
2024-02-02T11:33:44.580Z,1013.54
2024-02-02T11:34:44.520Z,1013.54
2024-02-02T11:35:44.487Z,1013.51
2024-02-02T11:36:44.493Z,1013.58
2024-02-02T11:37:44.490Z,1013.53
2024-02-02T11:38:44.443Z,1013.53
2024-02-02T11:39:44.447Z,1013.53
2024-02-02T11:40:44.414Z,1013.49
2024-02-02T11:41:44.436Z,1013.47
2024-02-02T11:42:44.443Z,1013.50
2024-02-02T11:43:44.391Z,1013.41
2024-02-02T11:44:44.388Z,1013.39
2024-02-02T11:45:44.437Z,1013.40
2024-02-02T11:46:44.436Z,1013.33
2024-02-02T11:47:44.449Z,1013.29
2024-02-02T11:48:44.476Z,1013.26
2024-02-02T11:49:44.498Z,1013.28
2024-02-02T11:50:44.336Z,1013.26
2024-02-02T11:51:44.322Z,1013.24
2024-02-02T11:52:44.314Z,1013.28
2024-02-02T11:53:44.312Z,1013.24
2024-02-02T11:54:44.388Z,1013.22
2024-02-02T11:55:44.333Z,1013.23
2024-02-02T11:56:44.276Z,1013.18
2024-02-02T11:57:44.293Z,1013.21
2024-02-02T11:58:44.286Z,1013.18
2024-02-02T11:59:44.268Z,1013.22
2024-02-02T12:00:44.322Z,1013.20
2024-02-02T12:01:44.269Z,1013.14
2024-02-02T12:02:44.197Z,1013.18
2024-02-02T12:03:44.261Z,1013.17
2024-02-02T12:04:44.208Z,1013.25
2024-02-02T12:05:44.197Z,1013.16